Time;durP1;ratioP1;P1;durP2;ratioP2;P2;SDS_P1;SDS_P2;PMS_P1;PMS_P2;Temp;Humidity;BMP_temperature;BMP_pressure;BME280_temperature;BME280_humidity;BME280_pressure;Samples;Min_cycle;Max_cycle;Signal;HPM_P1;HPM_P2
2023/05/24 00:01:50;;;;;;;2.47;2.17;;;12.10;99.90;;;;;;4978963;28;20179;-85
2023/05/24 00:04:17;;;;;;;3.30;2.70;;;12.00;99.90;;;;;;4964372;28;20207;-85
2023/05/24 00:06:43;;;;;;;6.75;2.95;;;11.90;99.90;;;;;;4967452;28;20271;-83
2023/05/24 00:09:10;;;;;;;4.47;2.53;;;12.20;99.90;;;;;;4993379;28;20179;-85
2023/05/24 00:11:36;;;;;;;3.88;2.75;;;11.70;99.90;;;;;;4989341;28;20260;-85
2023/05/24 00:14:01;;;;;;;5.50;3.70;;;11.60;99.90;;;;;;4982985;28;20195;-84
2023/05/24 00:16:27;;;;;;;3.53;2.70;;;11.60;99.90;;;;;;4982509;28;20209;-83
2023/05/24 00:18:53;;;;;;;6.10;3.10;;;11.50;99.90;;;;;;4980428;28;20266;-84
2023/05/24 00:21:19;;;;;;;5.28;3.67;;;11.40;99.90;;;;;;4986209;28;20442;-84
2023/05/24 00:23:44;;;;;;;4.00;2.60;;;11.40;99.90;;;;;;4968357;28;20191;-85
2023/05/24 00:26:10;;;;;;;7.20;2.60;;;11.20;99.90;;;;;;4982797;28;20195;-85
2023/05/24 00:28:36;;;;;;;8.27;3.93;;;11.10;99.90;;;;;;4974888;28;20179;-86
2023/05/24 00:31:02;;;;;;;4.63;2.57;;;11.00;99.90;;;;;;4983601;28;20225;-85
2023/05/24 00:33:28;;;;;;;3.13;2.80;;;11.00;99.90;;;;;;4964243;28;20170;-85
2023/05/24 00:35:57;;;;;;;8.23;3.45;;;11.00;99.90;;;;;;4981728;28;20196;-85
2023/05/24 00:38:24;;;;;;;4.00;2.65;;;10.90;99.90;;;;;;4968535;28;20258;-85
2023/05/24 00:40:50;;;;;;;7.85;3.03;;;;;;;;;;4983275;28;20710;-86
2023/05/24 00:43:15;;;;;;;3.92;2.90;;;10.90;99.90;;;;;;4984140;28;20564;-85
2023/05/24 00:45:41;;;;;;;11.33;3.60;;;10.90;99.90;;;;;;4983588;28;20200;-85
2023/05/24 00:48:08;;;;;;;3.77;2.83;;;11.00;99.90;;;;;;4986179;28;20183;-85
2023/05/24 00:50:34;;;;;;;6.65;2.58;;;11.00;99.90;;;;;;4965537;28;20214;-85
2023/05/24 00:53:03;;;;;;;8.03;3.90;;;11.00;99.90;;;;;;4986814;28;20188;-84
2023/05/24 00:55:29;;;;;;;6.30;2.63;;;10.90;99.90;;;;;;4982603;28;20459;-84
2023/05/24 00:57:56;;;;;;;3.80;2.65;;;11.00;99.90;;;;;;4968677;28;20201;-84
2023/05/24 01:00:23;;;;;;;8.32;2.60;;;11.00;99.90;;;;;;4986010;28;20773;-84
2023/05/24 01:02:49;;;;;;;9.48;3.22;;;10.90;99.90;;;;;;4984543;28;20199;-85
2023/05/24 01:05:16;;;;;;;5.47;2.28;;;11.00;99.90;;;;;;4980057;28;20203;-85
2023/05/24 01:07:52;;;;;;;4.15;3.00;;;11.00;99.90;;;;;;4981307;28;20334;-86
2023/05/24 01:10:27;;;;;;;4.32;3.10;;;11.00;99.90;;;;;;4983531;28;20199;-86
2023/05/24 01:13:15;;;;;;;3.85;2.70;;;10.90;99.90;;;;;;4987034;28;20183;-86
2023/05/24 01:15:51;;;;;;;3.33;2.75;;;10.90;99.90;;;;;;4986151;28;20270;-86
2023/05/24 01:18:25;;;;;;;8.90;4.35;;;10.90;99.90;;;;;;4984452;28;20179;-86
2023/05/24 01:21:18;;;;;;;3.13;2.83;;;10.90;99.90;;;;;;4987666;28;20190;-84
2023/05/24 01:23:48;;;;;;;4.82;2.50;;;11.00;99.90;;;;;;4969777;28;20286;-84
2023/05/24 01:26:20;;;;;;;8.95;3.15;;;11.00;99.90;;;;;;4987025;28;20207;-84
2023/05/24 01:28:47;;;;;;;10.10;3.63;;;11.00;99.90;;;;;;4969516;28;20198;-85
2023/05/24 01:31:14;;;;;;;3.22;2.28;;;10.90;99.90;;;;;;4984577;28;20217;-85
2023/05/24 01:33:43;;;;;;;6.55;2.90;;;10.90;99.90;;;;;;4984718;28;20215;-84
2023/05/24 01:36:09;;;;;;;3.15;2.85;;;10.90;99.90;;;;;;4969113;28;20714;-85
2023/05/24 01:38:36;;;;;;;10.20;3.03;;;10.80;99.90;;;;;;4987104;28;20184;-85
2023/05/24 01:41:34;;;;;;;7.63;2.63;;;10.80;99.90;;;;;;4969310;28;20727;-85
2023/05/24 01:44:22;;;;;;;14.25;3.70;;;10.90;99.90;;;;;;4983719;28;20211;-84
2023/05/24 01:47:00;;;;;;;3.47;2.30;;;10.90;99.90;;;;;;4978954;28;20185;-84
2023/05/24 01:49:29;;;;;;;10.75;2.88;;;10.90;99.90;;;;;;4976660;28;20191;-86
2023/05/24 01:52:02;;;;;;;3.42;2.50;;;10.90;99.90;;;;;;4974149;28;20747;-85
2023/05/24 01:54:32;;;;;;;8.02;3.55;;;10.90;99.90;;;;;;4985810;28;20204;-84
2023/05/24 01:57:00;;;;;;;6.35;2.85;;;10.90;99.90;;;;;;4971662;28;20648;-86
2023/05/24 01:59:28;;;;;;;7.55;3.40;;;11.00;99.90;;;;;;4977671;28;20184;-83
2023/05/24 02:01:54;;;;;;;5.50;3.00;;;11.00;99.90;;;;;;4985444;28;20840;-85
2023/05/24 02:04:20;;;;;;;11.93;3.50;;;11.00;99.90;;;;;;4978554;28;20310;-86
2023/05/24 02:06:46;;;;;;;7.67;3.63;;;11.00;99.90;;;;;;4977634;28;20164;-86
2023/05/24 02:09:12;;;;;;;7.75;3.22;;;11.00;99.90;;;;;;4986791;28;20202;-88
2023/05/24 02:11:38;;;;;;;6.53;3.67;;;11.00;99.90;;;;;;4989880;28;21071;-87
2023/05/24 02:14:03;;;;;;;3.77;2.90;;;11.10;99.90;;;;;;4970987;28;20299;-85
2023/05/24 02:16:29;;;;;;;5.60;3.17;;;11.10;99.90;;;;;;4981836;28;20290;-85
2023/05/24 02:18:55;;;;;;;11.10;3.10;;;11.20;99.90;;;;;;4973053;28;20197;-85
2023/05/24 02:21:22;;;;;;;8.27;3.25;;;11.20;99.90;;;;;;4989837;28;20434;-86
2023/05/24 02:23:47;;;;;;;2.97;2.33;;;11.10;99.90;;;;;;4989584;28;20184;-86
2023/05/24 02:26:13;;;;;;;5.00;2.60;;;11.10;99.90;;;;;;4974561;28;20459;-86
2023/05/24 02:28:39;;;;;;;5.03;3.13;;;11.10;99.90;;;;;;4986155;28;20194;-85
2023/05/24 02:31:05;;;;;;;6.17;3.37;;;11.20;99.90;;;;;;4973493;28;20465;-85
2023/05/24 02:33:30;;;;;;;5.20;3.27;;;11.20;99.90;;;;;;4968110;28;20170;-86
2023/05/24 02:35:56;;;;;;;6.77;2.90;;;11.10;99.90;;;;;;4988617;28;20203;-85
2023/05/24 02:38:22;;;;;;;6.37;3.70;;;11.10;99.90;;;;;;4971405;28;20187;-85
2023/05/24 02:40:47;;;;;;;5.43;3.73;;;11.20;99.90;;;;;;4987976;28;20198;-85
2023/05/24 02:43:13;;;;;;;6.10;3.43;;;;;;;;;;4990427;28;20442;-85
2023/05/24 02:45:39;;;;;;;5.20;2.58;;;11.40;99.90;;;;;;4977360;28;20231;-85
2023/05/24 02:48:05;;;;;;;5.97;3.10;;;11.40;99.90;;;;;;4975020;28;20187;-85
2023/05/24 02:50:30;;;;;;;4.70;3.20;;;11.30;99.90;;;;;;4978176;28;21163;-85
2023/05/24 02:52:56;;;;;;;6.87;3.10;;;;;;;;;;4967937;28;20179;-85
2023/05/24 02:55:22;;;;;;;3.67;2.80;;;;;;;;;;4987609;28;20199;-85
2023/05/24 02:57:48;;;;;;;5.37;3.00;;;11.30;99.90;;;;;;4968460;28;20775;-85
2023/05/24 03:00:14;;;;;;;7.40;3.57;;;11.30;99.90;;;;;;4986677;28;20450;-85
2023/05/24 03:02:40;;;;;;;5.20;3.60;;;11.20;99.90;;;;;;4986279;28;20661;-84
2023/05/24 03:05:08;;;;;;;5.67;2.77;;;11.10;99.90;;;;;;4983197;28;20293;-84
2023/05/24 03:07:34;;;;;;;6.68;3.72;;;11.00;99.90;;;;;;4985704;28;20867;-84
2023/05/24 03:10:00;;;;;;;7.73;3.37;;;11.00;99.90;;;;;;4979007;28;20215;-85
2023/05/24 03:12:25;;;;;;;4.70;2.20;;;11.00;99.90;;;;;;4975086;28;20439;-85
2023/05/24 03:14:51;;;;;;;3.43;2.73;;;11.00;99.90;;;;;;4989994;28;20215;-84
2023/05/24 03:17:17;;;;;;;5.90;3.30;;;10.90;99.90;;;;;;4970067;28;20186;-85
2023/05/24 03:19:42;;;;;;;8.57;3.40;;;10.90;99.90;;;;;;4971376;28;20180;-84
2023/05/24 03:22:08;;;;;;;11.60;3.77;;;10.80;99.90;;;;;;4970799;28;20270;-86
2023/05/24 03:24:33;;;;;;;4.37;3.40;;;10.80;99.90;;;;;;4985915;28;20691;-85
2023/05/24 03:26:59;;;;;;;7.07;3.40;;;10.70;99.90;;;;;;4987050;28;21201;-85
2023/05/24 03:29:25;;;;;;;9.63;3.58;;;10.70;99.90;;;;;;4969420;28;20190;-84
2023/05/24 03:31:51;;;;;;;6.50;3.53;;;10.60;99.90;;;;;;4986667;28;20187;-85
2023/05/24 03:34:16;;;;;;;8.60;3.30;;;10.60;99.90;;;;;;4974499;28;20218;-86
2023/05/24 03:36:42;;;;;;;5.93;3.00;;;10.60;99.90;;;;;;4971393;28;20240;-86
2023/05/24 03:39:08;;;;;;;4.50;3.10;;;10.60;99.90;;;;;;4989423;28;20187;-85
2023/05/24 03:41:33;;;;;;;15.23;4.10;;;10.70;99.90;;;;;;4977048;28;20243;-86
2023/05/24 03:43:59;;;;;;;5.30;2.37;;;10.70;99.90;;;;;;4969827;28;20249;-84
2023/05/24 03:46:25;;;;;;;3.50;2.78;;;10.70;99.90;;;;;;4969000;28;20183;-84
2023/05/24 03:48:50;;;;;;;5.17;3.57;;;10.70;99.90;;;;;;4967077;28;20230;-85
2023/05/24 03:51:16;;;;;;;5.27;3.23;;;10.70;99.90;;;;;;4978625;28;20208;-85
2023/05/24 03:53:42;;;;;;;5.53;3.60;;;10.70;99.90;;;;;;4972379;28;20562;-84
2023/05/24 03:56:07;;;;;;;6.20;3.10;;;10.70;99.90;;;;;;4975942;28;20195;-85
2023/05/24 03:58:33;;;;;;;7.30;2.80;;;10.70;99.90;;;;;;4988369;28;20375;-84
2023/05/24 04:00:59;;;;;;;5.70;3.17;;;10.70;99.90;;;;;;4964699;28;20933;-85
2023/05/24 04:03:25;;;;;;;5.95;3.63;;;10.70;99.90;;;;;;4969207;28;20188;-85
2023/05/24 04:05:51;;;;;;;13.10;3.97;;;;;;;;;;4988423;28;20217;-85
2023/05/24 04:08:17;;;;;;;7.85;3.92;;;10.70;99.90;;;;;;4988603;28;20187;-86
2023/05/24 04:10:42;;;;;;;6.03;2.83;;;10.70;99.90;;;;;;4986278;28;20429;-85
2023/05/24 04:13:08;;;;;;;5.27;2.97;;;10.80;99.90;;;;;;4970603;28;20199;-85
2023/05/24 04:15:33;;;;;;;7.70;4.40;;;10.70;99.90;;;;;;4967456;28;20210;-86
2023/05/24 04:18:02;;;;;;;4.00;2.87;;;;;;;;;;4974293;28;20656;-86
2023/05/24 04:20:28;;;;;;;9.25;3.38;;;10.90;99.90;;;;;;4971995;28;20598;-84
2023/05/24 04:22:54;;;;;;;5.88;2.83;;;10.90;99.90;;;;;;4978955;28;20198;-85
2023/05/24 04:25:21;;;;;;;4.80;2.50;;;11.00;99.90;;;;;;4964542;28;20922;-86
2023/05/24 04:27:49;;;;;;;3.30;2.33;;;11.10;99.90;;;;;;4977617;28;20901;-85
2023/05/24 04:30:15;;;;;;;2.85;2.47;;;11.10;99.90;;;;;;4969511;28;20211;-84
2023/05/24 04:32:44;;;;;;;6.00;2.80;;;11.20;99.90;;;;;;4978720;28;20176;-85
2023/05/24 04:35:10;;;;;;;6.47;2.72;;;11.10;99.90;;;;;;4978834;28;20203;-85
2023/05/24 04:37:36;;;;;;;14.73;3.10;;;11.20;99.90;;;;;;4984646;28;20203;-86
2023/05/24 04:40:06;;;;;;;4.87;2.97;;;;;;;;;;4965225;28;21055;-86
2023/05/24 04:42:31;;;;;;;5.05;3.03;;;11.10;99.90;;;;;;4966180;28;20195;-85
2023/05/24 04:44:58;;;;;;;5.53;3.37;;;;;;;;;;4979932;28;20214;-86
2023/05/24 04:47:24;;;;;;;7.40;2.05;;;11.10;99.90;;;;;;4979097;28;20215;-85
2023/05/24 04:49:50;;;;;;;4.50;2.58;;;;;;;;;;4980243;28;20207;-85
2023/05/24 04:52:17;;;;;;;6.30;3.33;;;11.20;99.90;;;;;;4965285;28;20182;-85
2023/05/24 04:54:42;;;;;;;5.18;2.92;;;11.20;99.90;;;;;;4963643;28;20223;-85
2023/05/24 04:57:08;;;;;;;8.27;3.33;;;11.20;99.90;;;;;;4976354;28;20283;-85
2023/05/24 04:59:33;;;;;;;7.30;3.30;;;11.10;99.90;;;;;;4971959;28;20735;-86
2023/05/24 05:01:59;;;;;;;4.77;2.60;;;11.10;99.90;;;;;;4974788;28;20246;-85
2023/05/24 05:04:24;;;;;;;13.37;2.60;;;11.20;99.90;;;;;;4969243;28;20294;-84
2023/05/24 05:06:51;;;;;;;5.80;3.20;;;11.30;99.90;;;;;;4969804;28;20214;-85
2023/05/24 05:09:17;;;;;;;4.20;2.20;;;11.30;99.90;;;;;;4969333;28;20207;-85
2023/05/24 05:11:44;;;;;;;13.27;2.40;;;11.30;99.90;;;;;;4983973;28;20204;-85
2023/05/24 05:14:10;;;;;;;3.25;2.22;;;;;;;;;;4973294;28;20851;-85
2023/05/24 05:16:37;;;;;;;4.10;3.07;;;11.50;99.90;;;;;;4978202;28;20483;-85
2023/05/24 05:19:05;;;;;;;5.22;2.72;;;11.60;99.90;;;;;;4966854;28;20442;-84
2023/05/24 05:21:32;;;;;;;6.40;2.95;;;11.70;99.90;;;;;;4982187;28;20191;-85
2023/05/24 05:23:58;;;;;;;5.45;3.15;;;11.70;99.90;;;;;;4962652;28;20191;-85
2023/05/24 05:26:25;;;;;;;8.48;3.13;;;11.70;99.90;;;;;;4980354;28;20194;-85
2023/05/24 05:28:51;;;;;;;5.40;3.28;;;11.70;99.90;;;;;;4962032;28;20535;-85
2023/05/24 05:31:17;;;;;;;3.20;1.83;;;;;;;;;;4971754;28;20272;-84
2023/05/24 05:33:43;;;;;;;6.53;2.87;;;11.90;99.90;;;;;;4966477;28;20458;-84
2023/05/24 05:36:08;;;;;;;3.93;2.90;;;11.90;99.90;;;;;;4981976;28;20445;-84
2023/05/24 05:38:34;;;;;;;6.40;3.20;;;11.90;99.90;;;;;;4968630;28;20187;-85
2023/05/24 05:40:59;;;;;;;5.00;3.07;;;12.00;99.90;;;;;;4967135;28;20246;-84
2023/05/24 05:43:25;;;;;;;8.23;2.90;;;12.10;99.90;;;;;;4967934;28;20270;-85
2023/05/24 05:45:50;;;;;;;9.13;3.10;;;12.00;99.90;;;;;;4980962;28;20207;-85
2023/05/24 05:48:16;;;;;;;9.03;3.13;;;12.10;99.90;;;;;;4980923;28;20218;-84
2023/05/24 05:50:41;;;;;;;4.97;2.53;;;12.10;99.90;;;;;;4982220;28;20300;-85
2023/05/24 05:53:07;;;;;;;4.60;2.03;;;12.10;99.90;;;;;;4981711;28;20207;-85
2023/05/24 05:55:32;;;;;;;5.03;2.97;;;12.20;99.90;;;;;;4968594;28;20206;-84
2023/05/24 05:57:58;;;;;;;5.10;2.60;;;12.30;99.90;;;;;;4978132;28;20216;-85
2023/05/24 06:00:23;;;;;;;12.30;4.43;;;12.50;99.90;;;;;;4975146;28;20914;-84
2023/05/24 06:02:49;;;;;;;4.73;2.90;;;;;;;;;;4975998;28;20211;-85
2023/05/24 06:05:15;;;;;;;8.83;2.67;;;12.90;99.90;;;;;;4962000;28;20269;-85
2023/05/24 06:07:41;;;;;;;5.10;3.03;;;;;;;;;;4964599;28;20451;-84
2023/05/24 06:10:06;;;;;;;10.70;2.47;;;13.20;99.90;;;;;;4968828;28;20625;-85
2023/05/24 06:12:33;;;;;;;4.27;2.40;;;;;;;;;;4964724;28;20790;-85
2023/05/24 06:14:59;;;;;;;5.47;2.50;;;;;;;;;;4974006;28;20210;-84
2023/05/24 06:17:24;;;;;;;7.20;2.33;;;13.30;99.90;;;;;;4975309;28;20462;-85
2023/05/24 06:19:52;;;;;;;3.67;2.60;;;;;;;;;;4967380;28;20583;-84
2023/05/24 06:22:18;;;;;;;7.20;3.13;;;13.30;99.90;;;;;;4973583;28;20175;-84
2023/05/24 06:24:44;;;;;;;4.40;2.55;;;13.80;99.90;;;;;;4981235;28;20462;-85
2023/05/24 06:27:09;;;;;;;5.50;2.93;;;13.10;99.90;;;;;;4982561;28;20191;-84
2023/05/24 06:29:35;;;;;;;11.23;2.67;;;13.10;99.90;;;;;;4965932;28;20542;-85
2023/05/24 06:32:00;;;;;;;7.10;3.40;;;13.20;99.90;;;;;;4967424;28;20183;-85
2023/05/24 06:34:27;;;;;;;5.40;2.33;;;13.10;99.90;;;;;;4980177;28;20200;-84
2023/05/24 06:36:52;;;;;;;7.70;2.22;;;13.10;99.90;;;;;;4983027;28;20248;-84
2023/05/24 06:39:18;;;;;;;7.47;3.37;;;12.60;99.90;;;;;;4981476;28;20223;-84
2023/05/24 06:41:44;;;;;;;7.43;3.37;;;12.30;99.90;;;;;;4980054;28;20194;-85
2023/05/24 06:44:10;;;;;;;8.20;2.80;;;12.00;99.90;;;;;;4980506;28;20191;-84
2023/05/24 06:46:36;;;;;;;5.13;2.50;;;12.00;99.90;;;;;;4983803;28;20191;-85
2023/05/24 06:49:02;;;;;;;3.20;2.50;;;;;;;;;;4972502;28;20194;-84
2023/05/24 06:51:28;;;;;;;7.20;2.92;;;12.20;99.90;;;;;;4982354;28;20606;-84
2023/05/24 06:53:53;;;;;;;7.13;2.70;;;13.70;99.90;;;;;;4981158;28;20282;-85
2023/05/24 06:56:19;;;;;;;4.87;2.53;;;13.60;99.90;;;;;;4964181;28;20685;-85
2023/05/24 06:58:44;;;;;;;5.57;2.10;;;13.90;99.90;;;;;;4983370;28;20198;-84
2023/05/24 07:01:10;;;;;;;10.00;3.30;;;14.30;99.90;;;;;;4975938;28;20243;-84
2023/05/24 07:03:36;;;;;;;5.50;2.80;;;14.50;99.90;;;;;;4962975;28;20180;-84
2023/05/24 07:06:02;;;;;;;4.20;2.33;;;14.30;99.90;;;;;;4976172;28;20512;-85
2023/05/24 07:08:28;;;;;;;6.30;3.10;;;14.40;99.90;;;;;;4981371;28;20415;-85
2023/05/24 07:10:54;;;;;;;7.90;3.43;;;14.20;99.90;;;;;;4965096;28;20282;-85
2023/05/24 07:13:20;;;;;;;11.10;3.63;;;14.30;99.90;;;;;;4984369;28;20219;-85
2023/05/24 07:15:46;;;;;;;12.07;3.70;;;14.40;99.90;;;;;;4980413;28;20469;-85
2023/05/24 07:18:12;;;;;;;10.93;3.10;;;14.00;99.90;;;;;;4973062;28;20433;-85
2023/05/24 07:20:38;;;;;;;6.20;2.60;;;14.00;99.90;;;;;;4977554;28;20183;-86
2023/05/24 07:23:03;;;;;;;14.73;2.83;;;14.00;99.90;;;;;;4969435;28;20657;-85
2023/05/24 07:25:30;;;;;;;7.00;3.20;;;13.90;99.90;;;;;;4975521;28;20691;-85
2023/05/24 07:27:55;;;;;;;5.40;3.23;;;14.00;99.90;;;;;;4970133;28;20191;-85
2023/05/24 07:30:21;;;;;;;9.33;2.90;;;13.90;99.90;;;;;;4971286;28;20459;-85
2023/05/24 07:32:47;;;;;;;6.90;3.30;;;13.80;99.90;;;;;;4998677;28;20179;-85
2023/05/24 07:35:12;;;;;;;7.63;2.90;;;13.90;99.90;;;;;;4974177;28;20206;-84
2023/05/24 07:37:39;;;;;;;5.67;2.70;;;;;;;;;;4968388;28;20187;-84
2023/05/24 07:40:09;;;;;;;6.23;2.93;;;13.90;99.90;;;;;;4968278;28;20635;-84
2023/05/24 07:42:34;;;;;;;4.30;2.85;;;14.00;99.90;;;;;;4967692;28;20584;-85
2023/05/24 07:45:00;;;;;;;5.70;2.30;;;14.10;99.90;;;;;;4968269;28;20558;-84
2023/05/24 07:47:26;;;;;;;4.67;2.43;;;14.10;99.90;;;;;;4967609;28;20286;-84
2023/05/24 07:49:52;;;;;;;12.37;3.37;;;;;;;;;;4967672;28;20239;-84
2023/05/24 07:52:18;;;;;;;5.17;2.30;;;14.70;99.90;;;;;;4971380;28;20438;-84
2023/05/24 07:54:43;;;;;;;3.67;2.57;;;15.20;99.90;;;;;;4982505;28;20469;-84
2023/05/24 07:57:09;;;;;;;6.27;2.90;;;;;;;;;;4965583;28;20182;-84
2023/05/24 07:59:34;;;;;;;9.43;3.50;;;15.90;99.90;;;;;;4963130;28;20258;-85
2023/05/24 08:02:04;;;;;;;2.47;2.27;;;15.80;99.90;;;;;;4973238;28;20431;-84
2023/05/24 08:04:30;;;;;;;6.83;2.70;;;;;;;;;;4963818;28;20208;-85
2023/05/24 08:06:56;;;;;;;6.10;3.33;;;15.40;99.90;;;;;;4964133;28;20422;-85
2023/05/24 08:09:22;;;;;;;5.97;3.60;;;15.50;99.90;;;;;;4968189;28;20458;-85
2023/05/24 08:11:47;;;;;;;9.83;4.13;;;15.50;99.90;;;;;;4960082;28;20485;-85
2023/05/24 08:14:13;;;;;;;7.90;3.60;;;15.50;99.90;;;;;;4967084;28;20196;-85
2023/05/24 08:16:38;;;;;;;7.17;3.73;;;15.30;99.90;;;;;;4967907;28;20233;-85
2023/05/24 08:19:04;;;;;;;11.13;3.70;;;15.30;99.90;;;;;;4961989;28;20221;-85
2023/05/24 08:21:30;;;;;;;8.10;2.73;;;15.20;99.90;;;;;;4976022;28;20195;-85
2023/05/24 08:23:56;;;;;;;14.47;4.23;;;15.30;99.90;;;;;;4975456;28;20206;-85
2023/05/24 08:26:23;;;;;;;5.77;2.80;;;;;;;;;;4958832;28;20434;-84
2023/05/24 08:28:48;;;;;;;7.23;3.63;;;15.40;99.90;;;;;;4962399;28;20533;-85
2023/05/24 08:31:14;;;;;;;11.77;3.63;;;15.40;99.90;;;;;;4958399;28;20467;-84
2023/05/24 08:33:39;;;;;;;10.10;3.30;;;15.60;99.90;;;;;;4959145;28;20397;-84
2023/05/24 08:36:05;;;;;;;7.30;3.07;;;15.30;99.90;;;;;;4976974;28;20267;-84
2023/05/24 08:38:31;;;;;;;5.60;2.77;;;15.20;99.90;;;;;;4977668;28;20641;-83
2023/05/24 08:40:57;;;;;;;6.93;3.50;;;15.30;99.90;;;;;;4977506;28;20506;-84
2023/05/24 08:43:23;;;;;;;8.60;3.20;;;15.20;99.90;;;;;;4978095;28;20172;-84
2023/05/24 08:45:50;;;;;;;14.40;3.17;;;15.40;99.90;;;;;;4960140;28;20196;-84
2023/05/24 08:48:17;;;;;;;4.73;2.97;;;15.50;99.90;;;;;;4977629;28;20901;-84
2023/05/24 08:50:43;;;;;;;8.70;4.07;;;15.40;99.90;;;;;;4960651;28;20447;-84
2023/05/24 08:53:10;;;;;;;7.93;3.10;;;15.50;99.90;;;;;;4977677;28;20445;-84
2023/05/24 08:55:37;;;;;;;10.03;3.23;;;15.10;99.90;;;;;;4977473;28;20423;-84
2023/05/24 08:58:03;;;;;;;5.00;3.10;;;15.10;99.90;;;;;;4960443;28;21003;-84
2023/05/24 09:00:29;;;;;;;8.30;2.87;;;15.10;99.90;;;;;;4960237;28;20465;-84
2023/05/24 09:02:57;;;;;;;5.40;2.53;;;15.20;99.90;;;;;;4959867;28;20415;-83
2023/05/24 09:05:24;;;;;;;6.77;3.80;;;15.10;99.90;;;;;;4959923;28;20207;-84
2023/05/24 09:07:50;;;;;;;6.27;3.20;;;;;;;;;;4977810;28;20419;-84
2023/05/24 09:10:20;;;;;;;8.57;4.17;;;15.10;99.90;;;;;;4960111;28;20463;-84
2023/05/24 09:12:52;;;;;;;6.37;2.60;;;15.40;99.90;;;;;;4977311;28;20777;-84
2023/05/24 09:15:18;;;;;;;4.47;2.57;;;15.40;99.90;;;;;;4959548;28;20510;-84
2023/05/24 09:17:44;;;;;;;5.40;2.93;;;15.30;99.90;;;;;;4960055;28;20411;-84
2023/05/24 09:20:10;;;;;;;7.00;2.70;;;15.20;99.90;;;;;;4959634;28;20188;-84
2023/05/24 09:22:39;;;;;;;7.23;3.20;;;15.30;99.90;;;;;;4977795;28;20649;-85
2023/05/24 09:25:06;;;;;;;7.30;2.90;;;15.30;99.90;;;;;;4960164;28;20439;-84
2023/05/24 09:27:36;;;;;;;11.10;3.27;;;15.50;99.90;;;;;;4960118;28;20419;-85
2023/05/24 09:30:04;;;;;;;8.27;2.97;;;15.70;99.90;;;;;;4959930;28;20482;-85
2023/05/24 09:32:30;;;;;;;6.53;3.33;;;15.10;99.90;;;;;;4978281;28;20411;-84
2023/05/24 09:34:57;;;;;;;12.27;3.43;;;15.50;99.90;;;;;;4963485;28;20431;-85
2023/05/24 09:37:26;;;;;;;9.63;2.73;;;15.90;99.90;;;;;;4963633;28;20451;-84
2023/05/24 09:39:52;;;;;;;5.30;3.30;;;15.90;99.90;;;;;;4980630;28;20794;-85
2023/05/24 09:42:23;;;;;;;12.73;3.33;;;16.30;99.90;;;;;;4979846;28;20836;-84
2023/05/24 09:45:06;;;;;;;5.70;3.00;;;16.30;99.90;;;;;;4962530;28;20483;-84
2023/05/24 09:47:33;;;;;;;6.20;3.17;;;16.60;99.90;;;;;;4963376;28;20403;-84
2023/05/24 09:50:00;;;;;;;12.83;3.10;;;16.60;99.90;;;;;;4982295;28;20466;-83
2023/05/24 09:52:26;;;;;;;4.37;2.60;;;16.50;99.90;;;;;;4967262;28;20537;-84
2023/05/24 09:54:52;;;;;;;9.23;2.73;;;;;;;;;;4966926;28;20435;-84
2023/05/24 09:57:21;;;;;;;7.73;2.80;;;17.80;99.90;;;;;;4982687;28;20414;-84
2023/05/24 09:59:47;;;;;;;9.73;4.20;;;;;;;;;;4962810;28;20418;-84
2023/05/24 10:02:13;;;;;;;8.00;3.20;;;;;;;;;;4979794;28;20404;-85
2023/05/24 10:04:39;;;;;;;6.37;3.67;;;19.90;99.90;;;;;;4962108;28;20445;-84
2023/05/24 10:07:07;;;;;;;9.40;2.90;;;19.70;99.90;;;;;;4979062;28;20430;-84
2023/05/24 10:09:34;;;;;;;3.90;2.70;;;20.40;99.60;;;;;;4961123;28;20422;-84
2023/05/24 10:12:05;;;;;;;6.00;3.30;;;20.70;95.90;;;;;;4978762;28;20476;-84
2023/05/24 10:14:36;;;;;;;6.37;2.77;;;21.10;99.90;;;;;;4961827;28;20514;-84
2023/05/24 10:17:06;;;;;;;10.43;3.00;;;22.10;99.30;;;;;;4980264;28;20403;-84
2023/05/24 10:19:33;;;;;;;7.83;2.20;;;22.10;90.80;;;;;;4981434;28;20423;-85
2023/05/24 10:21:59;;;;;;;4.27;2.97;;;;;;;;;;4981456;28;20423;-84
2023/05/24 10:24:30;;;;;;;11.63;3.80;;;21.50;90.20;;;;;;4981442;28;20906;-84
2023/05/24 10:26:57;;;;;;;7.47;3.47;;;21.00;91.30;;;;;;4963891;28;20415;-84
2023/05/24 10:29:44;;;;;;;20.13;3.60;;;21.00;91.50;;;;;;4980536;28;20443;-85
2023/05/24 10:32:10;;;;;;;9.40;3.40;;;20.90;92.10;;;;;;4983601;28;20430;-85
2023/05/24 10:34:37;;;;;;;6.20;2.63;;;21.70;92.90;;;;;;4985135;28;20853;-85
2023/05/24 10:37:02;;;;;;;8.67;2.77;;;20.50;91.90;;;;;;4969830;28;20445;-85
2023/05/24 10:39:28;;;;;;;6.23;2.80;;;20.30;92.70;;;;;;4978367;28;20423;-85
2023/05/24 10:42:01;;;;;;;4.27;3.13;;;20.20;92.80;;;;;;4986867;28;20188;-85
2023/05/24 10:44:29;;;;;;;6.50;3.10;;;19.10;93.20;;;;;;4975918;28;20206;-85
2023/05/24 10:47:11;;;;;;;15.00;3.50;;;19.10;93.50;;;;;;4967089;28;20450;-85
2023/05/24 10:49:56;;;;;;;7.13;3.20;;;19.70;93.90;;;;;;4983266;28;20465;-85
2023/05/24 10:52:36;;;;;;;11.50;3.33;;;19.80;95.30;;;;;;4977876;28;20990;-85
2023/05/24 10:55:07;;;;;;;8.70;3.97;;;20.00;93.40;;;;;;4984353;28;20458;-85
2023/05/24 10:57:33;;;;;;;8.33;2.50;;;20.70;92.80;;;;;;4967187;28;20508;-85
2023/05/24 11:00:26;;;;;;;7.20;2.90;;;20.70;86.40;;;;;;4984524;28;20470;-85
2023/05/24 11:03:08;;;;;;;6.90;2.47;;;20.90;85.30;;;;;;4985766;28;20438;-85
2023/05/24 11:05:49;;;;;;;4.50;2.73;;;20.90;86.00;;;;;;4969195;28;21073;-85
2023/05/24 11:08:34;;;;;;;7.00;2.47;;;21.30;85.00;;;;;;4984468;28;20529;-85
2023/05/24 11:11:06;;;;;;;9.20;3.97;;;21.40;86.90;;;;;;4975903;28;20462;-86
2023/05/24 11:13:32;;;;;;;8.50;3.43;;;;;;;;;;4988363;28;20427;-86
2023/05/24 11:15:59;;;;;;;7.87;2.70;;;;;;;;;;4977379;28;20473;-83
2023/05/24 11:18:24;;;;;;;8.93;3.00;;;19.30;89.80;;;;;;4991773;28;20437;-82
2023/05/24 11:20:51;;;;;;;4.23;2.90;;;18.90;91.00;;;;;;4982293;28;20485;-84
2023/05/24 11:23:16;;;;;;;17.40;3.63;;;19.50;92.00;;;;;;4994460;28;20179;-83
2023/05/24 11:25:43;;;;;;;6.97;2.90;;;;;;;;;;4987517;28;21041;-83
2023/05/24 11:28:10;;;;;;;13.10;2.97;;;19.60;85.30;;;;;;4968171;28;20191;-83
2023/05/24 11:30:42;;;;;;;7.40;2.90;;;19.50;86.30;;;;;;4986778;28;20459;-85
2023/05/24 11:33:18;;;;;;;8.13;2.17;;;18.90;89.20;;;;;;4987652;28;20477;-84
2023/05/24 11:35:48;;;;;;;7.07;3.50;;;19.10;91.30;;;;;;4976457;28;20544;-84
2023/05/24 11:38:15;;;;;;;6.90;2.57;;;19.60;92.50;;;;;;4988083;28;20459;-84
2023/05/24 11:40:45;;;;;;;6.00;2.90;;;20.10;83.70;;;;;;4987482;28;20450;-85
2023/05/24 11:43:20;;;;;;;7.50;3.23;;;20.00;82.60;;;;;;4991723;28;20569;-84
2023/05/24 11:45:48;;;;;;;5.30;2.87;;;20.10;86.80;;;;;;4987603;28;20457;-83
2023/05/24 11:48:15;;;;;;;6.43;2.50;;;;;;;;;;4982814;28;20449;-82
2023/05/24 11:50:42;;;;;;;5.33;2.70;;;19.20;90.60;;;;;;4971670;28;20494;-83
2023/05/24 11:53:12;;;;;;;5.57;2.73;;;18.80;90.50;;;;;;4987552;28;20953;-85
2023/05/24 11:55:41;;;;;;;9.23;3.13;;;18.30;92.30;;;;;;4986101;28;20550;-85
2023/05/24 11:58:15;;;;;;;4.27;2.43;;;18.40;92.10;;;;;;4987229;28;20502;-83
2023/05/24 12:00:42;;;;;;;6.97;3.40;;;18.10;92.50;;;;;;4975251;28;20438;-83
2023/05/24 12:03:08;;;;;;;5.10;3.07;;;18.00;92.40;;;;;;4987912;28;20518;-86
2023/05/24 12:05:36;;;;;;;6.10;3.37;;;17.70;91.30;;;;;;4986007;28;20806;-83
2023/05/24 12:08:07;;;;;;;4.63;2.83;;;17.50;92.90;;;;;;4973769;28;20894;-85
2023/05/24 12:10:37;;;;;;;7.40;2.67;;;18.00;94.10;;;;;;4976032;28;20956;-84
2023/05/24 12:13:03;;;;;;;4.90;2.20;;;18.00;94.20;;;;;;4987402;28;20465;-85
2023/05/24 12:15:29;;;;;;;4.70;3.63;;;19.00;93.20;;;;;;4984617;28;20504;-83
2023/05/24 12:17:56;;;;;;;8.60;3.27;;;19.70;90.90;;;;;;4968164;28;20441;-83
2023/05/24 12:20:22;;;;;;;3.50;2.63;;;19.80;88.60;;;;;;4983902;28;20438;-84
2023/05/24 12:22:52;;;;;;;7.43;3.00;;;19.10;88.50;;;;;;4973337;28;20449;-84
2023/05/24 12:25:20;;;;;;;13.50;3.47;;;19.10;89.10;;;;;;4969118;28;20457;-84
2023/05/24 12:27:47;;;;;;;12.07;2.50;;;;;;;;;;4985138;28;20433;-82
2023/05/24 12:30:20;;;;;;;3.37;2.50;;;20.10;87.50;;;;;;4987014;28;20835;-84
2023/05/24 12:32:47;;;;;;;4.27;2.77;;;20.30;85.90;;;;;;4971190;28;20748;-85
2023/05/24 12:35:12;;;;;;;9.33;2.73;;;20.40;85.20;;;;;;4973787;28;20458;-84
2023/05/24 12:37:38;;;;;;;9.37;3.20;;;;;;;;;;4987620;28;20833;-85
2023/05/24 12:40:16;;;;;;;9.00;2.83;;;21.20;85.80;;;;;;4980051;28;20195;-82
2023/05/24 12:42:44;;;;;;;8.80;3.10;;;21.60;86.20;;;;;;4987594;28;20438;-82
2023/05/24 12:45:10;;;;;;;5.43;2.47;;;20.60;83.40;;;;;;4991203;28;20512;-84
2023/05/24 12:47:36;;;;;;;5.97;2.33;;;20.30;84.60;;;;;;4976057;28;20442;-83
2023/05/24 12:50:01;;;;;;;12.43;3.13;;;20.60;88.40;;;;;;4983884;28;20488;-83
2023/05/24 12:52:27;;;;;;;5.90;2.60;;;21.30;82.10;;;;;;4987737;28;20183;-84
2023/05/24 12:54:52;;;;;;;3.10;2.03;;;21.30;82.10;;;;;;4982672;28;20561;-82
2023/05/24 12:57:18;;;;;;;17.40;3.93;;;21.40;85.70;;;;;;4968981;28;20234;-84